createdAt,value
2023-01-09T00:02:06.489Z,28.65
2023-01-09T00:04:51.781Z,35.40
2023-01-09T00:07:32.395Z,33.20
2023-01-09T00:10:15.388Z,29.67
2023-01-09T00:12:49.995Z,30.20
2023-01-09T00:15:33.511Z,30.85
2023-01-09T00:18:11.719Z,35.83
2023-01-09T00:20:58.263Z,31.05
2023-01-09T00:23:33.917Z,32.95
2023-01-09T00:26:18.505Z,31.98
2023-01-09T00:28:55.711Z,33.25
2023-01-09T00:31:36.552Z,34.42
2023-01-09T00:34:25.991Z,31.65
2023-01-09T00:36:58.230Z,32.72
2023-01-09T00:39:36.460Z,32.30
2023-01-09T00:42:25.840Z,30.23
2023-01-09T00:45:14.502Z,27.10
2023-01-09T00:47:48.339Z,29.70
2023-01-09T00:50:35.178Z,25.95
2023-01-09T00:53:26.370Z,24.23
2023-01-09T00:56:16.856Z,25.17
2023-01-09T00:58:58.506Z,28.67
2023-01-09T01:01:39.766Z,23.05
2023-01-09T01:04:28.179Z,23.60
2023-01-09T01:07:25.115Z,27.55
2023-01-09T01:10:03.041Z,25.63
2023-01-09T01:12:42.919Z,22.77
2023-01-09T01:15:26.877Z,29.38
2023-01-09T01:18:16.538Z,21.92
2023-01-09T01:20:52.578Z,20.77
2023-01-09T01:23:38.869Z,20.00
2023-01-09T01:26:18.101Z,20.38
2023-01-09T01:28:50.698Z,21.35
2023-01-09T01:31:26.112Z,20.27
2023-01-09T01:34:03.286Z,21.58
2023-01-09T01:36:48.790Z,18.50
2023-01-09T01:39:24.485Z,18.63
2023-01-09T01:42:02.133Z,20.83
2023-01-09T01:45:02.091Z,18.55
2023-01-09T01:48:04.018Z,16.13
2023-01-09T01:50:46.612Z,18.52
2023-01-09T01:53:27.267Z,19.17
2023-01-09T01:56:21.847Z,16.55
2023-01-09T01:59:13.287Z,17.00
2023-01-09T02:01:57.691Z,18.88
2023-01-09T02:04:35.523Z,16.35
2023-01-09T02:07:11.105Z,19.02
2023-01-09T02:09:47.302Z,17.90
2023-01-09T02:12:28.969Z,19.27
2023-01-09T02:15:17.330Z,20.50
2023-01-09T02:18:19.677Z,19.83
2023-01-09T02:21:13.607Z,16.67
2023-01-09T02:24:04.801Z,18.50
2023-01-09T02:26:56.010Z,17.88
2023-01-09T02:29:38.116Z,18.35
2023-01-09T02:32:32.991Z,17.88
2023-01-09T02:35:51.081Z,19.23
2023-01-09T02:38:45.593Z,18.38
2023-01-09T02:41:31.855Z,16.73
2023-01-09T02:44:36.135Z,15.63
2023-01-09T02:47:34.569Z,18.50
2023-01-09T02:50:17.736Z,19.27
2023-01-09T02:53:25.410Z,16.88
2023-01-09T02:56:11.951Z,19.73
2023-01-09T02:59:28.663Z,20.13
2023-01-09T03:02:34.602Z,16.75
2023-01-09T03:05:24.413Z,18.17
2023-01-09T03:08:18.692Z,17.17
2023-01-09T03:11:14.868Z,18.00
2023-01-09T03:14:01.325Z,22.02
2023-01-09T03:16:48.143Z,23.00
2023-01-09T03:19:28.255Z,23.17
2023-01-09T03:22:09.094Z,20.05
2023-01-09T03:24:54.705Z,21.90
2023-01-09T03:27:33.052Z,24.65
2023-01-09T03:30:13.828Z,22.15
2023-01-09T03:33:08.137Z,21.85
2023-01-09T03:35:45.694Z,23.35
2023-01-09T03:38:24.552Z,20.20
2023-01-09T03:41:05.197Z,23.17
2023-01-09T03:43:45.925Z,22.63
2023-01-09T03:46:27.703Z,23.38
2023-01-09T03:49:00.817Z,20.70
2023-01-09T03:51:44.439Z,24.77
2023-01-09T03:54:31.532Z,21.45
2023-01-09T03:57:11.538Z,23.48
2023-01-09T03:59:52.887Z,19.75
2023-01-09T04:02:36.717Z,23.27
2023-01-09T04:05:15.102Z,23.85
2023-01-09T04:07:58.487Z,23.25
2023-01-09T04:10:38.340Z,26.95
2023-01-09T04:13:16.379Z,24.67
2023-01-09T04:15:49.223Z,23.80
2023-01-09T04:18:27.546Z,26.27
2023-01-09T04:20:59.559Z,26.65
2023-01-09T04:23:37.477Z,20.55
2023-01-09T04:26:17.336Z,22.48
2023-01-09T04:28:46.601Z,24.75
2023-01-09T04:31:26.900Z,25.75
2023-01-09T04:34:04.332Z,25.67
2023-01-09T04:36:37.061Z,25.73
2023-01-09T04:39:11.467Z,24.90
2023-01-09T04:41:49.784Z,27.33
2023-01-09T04:44:37.940Z,23.75
2023-01-09T04:47:27.201Z,26.67
2023-01-09T04:50:04.731Z,30.55
2023-01-09T04:52:48.443Z,29.00
2023-01-09T04:55:17.691Z,22.13
2023-01-09T04:57:57.892Z,25.75
2023-01-09T05:00:33.562Z,27.30
2023-01-09T05:03:22.008Z,25.02
2023-01-09T05:05:57.041Z,28.25
2023-01-09T05:08:34.662Z,34.85
2023-01-09T05:11:13.528Z,28.15
2023-01-09T05:13:54.368Z,31.65
2023-01-09T05:16:32.144Z,40.22
2023-01-09T05:19:15.383Z,34.95
2023-01-09T05:22:02.057Z,27.80
2023-01-09T05:24:34.098Z,33.33
2023-01-09T05:27:09.721Z,40.78
2023-01-09T05:29:51.871Z,44.17
2023-01-09T05:32:18.831Z,41.28
2023-01-09T05:34:59.389Z,41.17
2023-01-09T05:37:40.162Z,51.22
2023-01-09T05:40:20.676Z,45.03
2023-01-09T05:43:04.881Z,43.88
2023-01-09T05:45:45.543Z,46.47
2023-01-09T05:48:25.750Z,43.75
2023-01-09T05:51:06.474Z,45.88
2023-01-09T05:53:39.163Z,53.38
2023-01-09T05:56:22.699Z,52.15
2023-01-09T05:59:03.432Z,51.53
2023-01-09T06:01:41.106Z,54.83
2023-01-09T06:04:21.845Z,53.58
2023-01-09T06:07:10.066Z,50.53
2023-01-09T06:09:56.677Z,49.78
2023-01-09T06:12:34.689Z,52.10
2023-01-09T06:15:09.141Z,50.38
2023-01-09T06:17:52.105Z,59.45
2023-01-09T06:20:35.322Z,49.97
2023-01-09T06:23:12.203Z,34.63
2023-01-09T06:26:00.192Z,53.70
2023-01-09T06:28:45.912Z,55.63
2023-01-09T06:31:26.663Z,71.88
2023-01-09T06:34:01.970Z,65.72
2023-01-09T06:36:42.836Z,53.00
2023-01-09T06:39:20.597Z,48.58
2023-01-09T06:42:03.979Z,52.80
2023-01-09T06:44:48.419Z,45.97
2023-01-09T06:47:31.118Z,50.83
2023-01-09T06:50:09.290Z,46.67
2023-01-09T06:52:53.074Z,49.03
2023-01-09T06:55:30.205Z,48.53
2023-01-09T06:58:05.846Z,48.67
2023-01-09T07:00:52.327Z,48.03
2023-01-09T07:03:27.603Z,53.78
2023-01-09T07:06:05.680Z,50.85
2023-01-09T07:08:35.456Z,48.35
2023-01-09T07:11:13.418Z,51.28
2023-01-09T07:13:48.498Z,46.70
2023-01-09T07:16:24.372Z,54.20
2023-01-09T07:19:05.449Z,51.00
2023-01-09T07:21:46.025Z,51.85
2023-01-09T07:24:29.137Z,69.10
2023-01-09T07:27:06.809Z,50.97
2023-01-09T07:29:48.511Z,50.95
2023-01-09T07:32:26.767Z,46.28
2023-01-09T07:34:59.511Z,47.10
2023-01-09T07:37:34.268Z,45.63
2023-01-09T07:40:10.527Z,49.33
2023-01-09T07:42:43.238Z,47.58
2023-01-09T07:45:24.891Z,43.50
2023-01-09T07:48:07.713Z,42.53
2023-01-09T07:50:46.495Z,44.92
2023-01-09T07:53:15.967Z,46.45
2023-01-09T07:56:06.049Z,46.15
2023-01-09T07:58:46.787Z,44.00
2023-01-09T08:01:32.543Z,45.40
2023-01-09T08:04:02.770Z,47.08
2023-01-09T08:06:41.749Z,42.28
2023-01-09T08:09:29.027Z,45.30
2023-01-09T08:12:09.706Z,42.25
2023-01-09T08:14:49.342Z,40.53
2023-01-09T08:17:32.371Z,41.88
2023-01-09T08:20:10.981Z,37.83
2023-01-09T08:22:57.798Z,41.92
2023-01-09T08:25:40.504Z,37.88
2023-01-09T08:28:17.551Z,40.33
2023-01-09T08:31:07.583Z,46.53
2023-01-09T08:33:42.297Z,43.05
2023-01-09T08:36:23.026Z,37.05
2023-01-09T08:38:55.470Z,41.75
2023-01-09T08:41:49.402Z,44.60
2023-01-09T08:44:45.914Z,39.58
2023-01-09T08:47:40.565Z,44.33
2023-01-09T08:50:24.323Z,37.97
2023-01-09T08:53:07.619Z,41.08
2023-01-09T08:55:51.777Z,48.38
2023-01-09T08:58:30.166Z,45.20
2023-01-09T09:01:10.587Z,45.22
2023-01-09T09:03:48.330Z,45.33
2023-01-09T09:06:25.560Z,45.00
2023-01-09T09:09:04.018Z,61.72
2023-01-09T09:11:39.742Z,67.03
2023-01-09T09:14:30.729Z,55.50
2023-01-09T09:17:03.763Z,44.95
2023-01-09T09:19:41.512Z,44.70
2023-01-09T09:22:14.240Z,49.47
2023-01-09T09:24:47.670Z,47.17
2023-01-09T09:27:25.449Z,51.78
2023-01-09T09:30:00.171Z,49.35
2023-01-09T09:32:37.025Z,53.03
2023-01-09T09:35:21.280Z,44.72
2023-01-09T09:38:10.095Z,48.22
2023-01-09T09:41:37.736Z,46.90
2023-01-09T09:44:52.627Z,56.53
2023-01-09T09:47:43.260Z,74.93
2023-01-09T09:50:24.812Z,86.18
2023-01-09T09:55:45.974Z,70.40
2023-01-09T09:58:22.960Z,77.18
2023-01-09T10:01:01.958Z,83.05
2023-01-09T10:03:48.654Z,79.43
2023-01-09T10:06:26.574Z,72.10
2023-01-09T10:09:28.732Z,73.70
2023-01-09T10:12:33.081Z,72.03
2023-01-09T10:15:20.891Z,58.75
2023-01-09T10:18:07.609Z,63.80
2023-01-09T10:20:56.724Z,58.40
2023-01-09T10:23:58.895Z,70.97
2023-01-09T10:27:00.911Z,62.50
2023-01-09T10:29:52.312Z,60.30
2023-01-09T10:32:57.250Z,67.47
2023-01-09T10:35:51.078Z,57.83
2023-01-09T10:38:41.269Z,57.47
2023-01-09T10:41:26.990Z,66.55
2023-01-09T10:44:25.962Z,64.47
2023-01-09T10:47:12.628Z,59.55
2023-01-09T10:49:51.146Z,59.05
2023-01-09T10:52:36.919Z,55.75
2023-01-09T10:55:28.049Z,58.40
2023-01-09T10:58:14.783Z,56.95
2023-01-09T11:00:53.547Z,53.08
2023-01-09T11:03:32.302Z,54.28
2023-01-09T11:06:35.199Z,63.38
2023-01-09T11:09:11.333Z,85.15
2023-01-09T11:11:54.447Z,71.93
2023-01-09T11:14:39.001Z,58.50
2023-01-09T11:17:33.944Z,52.97
2023-01-09T11:20:26.905Z,53.22
2023-01-09T11:23:25.049Z,57.83
2023-01-09T11:26:10.271Z,52.50
2023-01-09T11:29:03.358Z,59.60
2023-01-09T11:31:58.723Z,64.20
2023-01-09T11:34:43.809Z,67.40
2023-01-09T11:38:01.520Z,55.05
2023-01-09T11:40:40.779Z,49.17
2023-01-09T11:43:28.566Z,61.20
2023-01-09T11:46:24.509Z,54.63
2023-01-09T11:49:08.452Z,53.92
2023-01-09T11:54:37.864Z,53.58
2023-01-09T11:57:16.671Z,62.33
2023-01-09T12:00:04.487Z,60.08
2023-01-09T12:03:16.231Z,57.50
2023-01-09T12:06:13.443Z,54.25
2023-01-09T12:09:12.877Z,57.42
2023-01-09T12:12:55.864Z,71.57
2023-01-09T12:16:22.331Z,71.57
2023-01-09T12:19:06.735Z,74.78
2023-01-09T12:21:57.551Z,76.40
2023-01-09T12:25:05.493Z,69.32
2023-01-09T12:28:13.888Z,72.93
2023-01-09T12:31:21.462Z,66.53
2023-01-09T12:34:38.134Z,62.63
2023-01-09T12:38:05.485Z,70.88
2023-01-09T12:41:08.164Z,67.10
2023-01-09T12:44:11.459Z,69.13
2023-01-09T12:47:38.671Z,62.35
2023-01-09T12:50:34.480Z,68.38
2023-01-09T12:53:28.333Z,74.93
2023-01-09T12:56:18.149Z,86.13
2023-01-09T12:59:05.595Z,82.88
2023-01-09T13:02:15.898Z,85.95
2023-01-09T13:05:07.052Z,83.15
2023-01-09T13:10:34.481Z,83.38
2023-01-09T13:13:24.399Z,66.05
2023-01-09T13:16:19.551Z,94.97
2023-01-09T13:19:04.771Z,76.20
2023-01-09T13:21:55.064Z,157.20
2023-01-09T13:24:52.021Z,138.50
2023-01-09T13:27:39.617Z,115.75
2023-01-09T13:30:28.367Z,112.07
2023-01-09T13:33:43.426Z,100.68
2023-01-09T13:36:47.363Z,80.93
2023-01-09T13:39:35.373Z,94.82
2023-01-09T13:42:38.850Z,78.05
2023-01-09T13:45:26.907Z,87.55
2023-01-09T13:48:20.483Z,91.90
2023-01-09T13:51:36.636Z,111.82
2023-01-09T13:54:33.647Z,88.03
2023-01-09T13:57:43.883Z,95.40
2023-01-09T14:00:34.497Z,90.90
2023-01-09T14:03:31.604Z,98.68
2023-01-09T14:06:34.972Z,83.80
2023-01-09T14:09:29.880Z,103.85
2023-01-09T14:12:17.739Z,95.63
2023-01-09T14:15:01.337Z,97.95
2023-01-09T14:17:44.269Z,100.35
2023-01-09T14:20:52.763Z,99.28
2023-01-09T14:24:06.467Z,107.53
2023-01-09T14:26:48.271Z,96.38
2023-01-09T14:29:45.427Z,100.07
2023-01-09T14:32:29.828Z,99.78
2023-01-09T14:35:19.967Z,105.53
2023-01-09T14:38:09.684Z,84.38
2023-01-09T14:41:13.746Z,90.88
2023-01-09T14:44:03.701Z,93.72
2023-01-09T14:46:50.529Z,91.95
2023-01-09T14:49:34.779Z,92.53
2023-01-09T14:52:39.906Z,91.80
2023-01-09T14:55:39.879Z,95.07
2023-01-09T14:58:45.002Z,90.38
2023-01-09T15:01:26.533Z,88.53
2023-01-09T15:04:46.030Z,90.47
2023-01-09T15:07:56.581Z,97.03
2023-01-09T15:10:37.514Z,98.93
2023-01-09T15:13:37.091Z,86.68
2023-01-09T15:16:20.655Z,99.85
2023-01-09T15:19:07.163Z,96.90
2023-01-09T15:22:04.430Z,101.78
2023-01-09T15:24:47.932Z,99.53
2023-01-09T15:27:26.521Z,93.10
2023-01-09T15:30:28.191Z,99.63
2023-01-09T15:33:14.523Z,96.93
2023-01-09T15:36:02.136Z,95.25
2023-01-09T15:38:50.484Z,97.40
2023-01-09T15:41:56.856Z,96.00
2023-01-09T15:44:44.798Z,87.32
2023-01-09T15:47:29.507Z,86.72
2023-01-09T15:50:18.254Z,98.28
2023-01-09T15:53:11.026Z,83.38
2023-01-09T15:56:05.596Z,87.10
2023-01-09T15:58:47.758Z,77.07
2023-01-09T16:02:07.590Z,78.60
2023-01-09T16:04:59.414Z,82.85
2023-01-09T16:07:45.876Z,83.05
2023-01-09T16:11:02.715Z,83.80
2023-01-09T16:13:55.104Z,83.35
2023-01-09T16:16:45.239Z,79.43
2023-01-09T16:20:02.755Z,85.10
2023-01-09T16:22:57.191Z,90.38
2023-01-09T16:25:46.414Z,85.68
2023-01-09T16:28:27.124Z,90.03
2023-01-09T16:31:18.824Z,91.10
2023-01-09T16:34:11.483Z,81.97
2023-01-09T16:36:54.017Z,85.95
2023-01-09T16:39:31.976Z,89.18
2023-01-09T16:42:28.035Z,92.40
2023-01-09T16:45:16.107Z,86.72
2023-01-09T16:48:03.451Z,93.60
2023-01-09T16:50:46.821Z,87.40
2023-01-09T16:53:33.298Z,79.75
2023-01-09T16:56:16.088Z,87.47
2023-01-09T16:59:00.573Z,80.63
2023-01-09T17:01:44.279Z,76.80
2023-01-09T17:04:22.426Z,76.80
2023-01-09T17:07:06.783Z,73.75
2023-01-09T17:10:03.632Z,72.63
2023-01-09T17:12:49.222Z,69.47
2023-01-09T17:15:32.444Z,83.68
2023-01-09T17:18:19.480Z,80.35
2023-01-09T17:20:57.591Z,68.95
2023-01-09T17:23:32.845Z,71.38
2023-01-09T17:26:35.060Z,82.90
2023-01-09T17:29:21.264Z,81.53
2023-01-09T17:31:56.498Z,81.78
2023-01-09T17:34:43.193Z,75.05
2023-01-09T17:37:27.181Z,80.68
2023-01-09T17:40:19.637Z,73.95
2023-01-09T17:42:57.230Z,78.18
2023-01-09T17:45:41.121Z,73.07
2023-01-09T17:48:30.601Z,78.78
2023-01-09T17:51:07.413Z,73.85
2023-01-09T17:53:55.716Z,72.80
2023-01-09T17:56:46.810Z,68.57
2023-01-09T17:59:29.436Z,71.03
2023-01-09T18:02:07.330Z,66.45
2023-01-09T18:04:51.372Z,68.45
2023-01-09T18:10:11.812Z,61.17
2023-01-09T18:12:57.586Z,65.10
2023-01-09T18:15:36.078Z,68.55
2023-01-09T18:18:17.273Z,66.28
2023-01-09T18:21:07.008Z,71.53
2023-01-09T18:23:42.303Z,71.30
2023-01-09T18:26:23.439Z,71.68
2023-01-09T18:29:14.085Z,60.42
2023-01-09T18:31:55.077Z,59.20
2023-01-09T18:34:39.035Z,59.28
2023-01-09T18:37:29.693Z,58.35
2023-01-09T18:40:05.434Z,57.75
2023-01-09T18:42:45.451Z,56.63
2023-01-09T18:45:26.877Z,62.97
2023-01-09T18:48:07.593Z,57.17
2023-01-09T18:50:51.589Z,57.50
2023-01-09T18:53:37.757Z,57.38
2023-01-09T18:56:12.635Z,58.28
2023-01-09T18:59:09.095Z,60.78
2023-01-09T19:01:56.241Z,54.97
2023-01-09T19:04:46.422Z,58.10
2023-01-09T19:07:24.158Z,59.15
2023-01-09T19:10:11.898Z,59.28
2023-01-09T19:13:00.820Z,60.33
2023-01-09T19:15:43.762Z,59.78
2023-01-09T19:18:22.370Z,68.75
2023-01-09T19:21:03.035Z,59.20
2023-01-09T19:23:57.854Z,58.60
2023-01-09T19:26:36.724Z,57.80
2023-01-09T19:29:20.658Z,61.63
2023-01-09T19:32:08.765Z,58.97
2023-01-09T19:34:53.484Z,61.13
2023-01-09T19:37:45.383Z,61.00
2023-01-09T19:40:29.769Z,63.80
2023-01-09T19:43:25.974Z,66.57
2023-01-09T19:46:06.956Z,66.03
2023-01-09T19:48:47.691Z,68.47
2023-01-09T19:51:29.467Z,70.03
2023-01-09T19:54:13.511Z,71.55
2023-01-09T19:57:20.042Z,63.97
2023-01-09T20:00:01.593Z,65.45
2023-01-09T20:02:57.864Z,62.85
2023-01-09T20:05:37.519Z,72.47
2023-01-09T20:08:25.900Z,60.58
2023-01-09T20:11:18.234Z,65.63
2023-01-09T20:14:05.656Z,53.25
2023-01-09T20:16:52.459Z,52.95
2023-01-09T20:19:42.480Z,54.20
2023-01-09T20:22:26.381Z,47.50
2023-01-09T20:28:24.413Z,45.20
2023-01-09T20:31:31.505Z,52.55
2023-01-09T20:34:28.796Z,48.92
2023-01-09T20:37:11.919Z,50.80
2023-01-09T20:39:58.982Z,43.25
2023-01-09T20:42:52.345Z,51.97
2023-01-09T20:45:31.509Z,50.65
2023-01-09T20:48:12.210Z,49.95
2023-01-09T20:50:56.781Z,48.63
2023-01-09T20:53:39.814Z,52.58
2023-01-09T20:56:33.223Z,61.33
2023-01-09T20:59:24.016Z,51.10
2023-01-09T21:02:01.913Z,52.17
2023-01-09T21:04:42.946Z,51.38
2023-01-09T21:07:28.031Z,53.28
2023-01-09T21:10:11.508Z,53.70
2023-01-09T21:12:50.661Z,56.10
2023-01-09T21:15:35.582Z,62.53
2023-01-09T21:18:15.830Z,55.35
2023-01-09T21:20:55.764Z,50.90
2023-01-09T21:23:43.579Z,47.92
2023-01-09T21:26:32.359Z,44.88
2023-01-09T21:29:15.757Z,58.13
2023-01-09T21:32:00.466Z,59.75
2023-01-09T21:34:48.919Z,49.42
2023-01-09T21:37:40.374Z,49.45
2023-01-09T21:40:30.733Z,41.83
2023-01-09T21:43:40.023Z,47.30
2023-01-09T21:46:44.745Z,44.38
2023-01-09T21:49:31.497Z,44.05
2023-01-09T21:52:24.077Z,40.63
2023-01-09T21:55:03.814Z,40.88
2023-01-09T21:57:59.668Z,39.35
2023-01-09T22:00:50.979Z,40.42
2023-01-09T22:03:47.827Z,43.00
2023-01-09T22:06:31.751Z,40.60
2023-01-09T22:12:00.703Z,37.08
2023-01-09T22:14:42.004Z,38.00
2023-01-09T22:17:40.355Z,41.55
2023-01-09T22:20:24.345Z,41.53
2023-01-09T22:23:08.986Z,39.38
2023-01-09T22:25:44.480Z,41.72
2023-01-09T22:28:33.982Z,43.70
2023-01-09T22:31:25.880Z,44.35
2023-01-09T22:34:21.462Z,42.08
2023-01-09T22:37:05.299Z,42.47
2023-01-09T22:39:53.891Z,40.35
2023-01-09T22:42:41.543Z,44.38
2023-01-09T22:45:22.365Z,43.67
2023-01-09T22:48:09.660Z,39.58
2023-01-09T22:50:53.419Z,37.85
2023-01-09T22:53:52.392Z,42.80
2023-01-09T22:56:35.700Z,39.25
2023-01-09T22:59:27.965Z,45.78
2023-01-09T23:02:08.746Z,37.05
2023-01-09T23:04:58.411Z,40.15
2023-01-09T23:07:33.701Z,40.20
2023-01-09T23:10:20.421Z,37.70
2023-01-09T23:13:17.955Z,36.03
2023-01-09T23:16:02.253Z,32.08
2023-01-09T23:18:51.429Z,40.38
2023-01-09T23:21:31.896Z,34.72
2023-01-09T23:24:09.433Z,32.58
2023-01-09T23:26:55.026Z,32.10
2023-01-09T23:29:38.802Z,33.83
2023-01-09T23:32:24.432Z,31.10
2023-01-09T23:35:08.492Z,32.83
2023-01-09T23:38:03.074Z,32.97
2023-01-09T23:40:51.608Z,29.50
2023-01-09T23:43:38.008Z,33.40
2023-01-09T23:46:22.639Z,32.35
2023-01-09T23:49:03.665Z,31.48
2023-01-09T23:51:51.811Z,35.25
2023-01-09T23:54:43.085Z,46.40
2023-01-09T23:57:27.560Z,61.40
